sensor_id;sensor_type;location;lat;lon;timestamp;pressure;altitude;pressure_sealevel;temperature;humidity
69027;BME280;56080;47.594;19.116;2023-07-13T00:07:03;100034;;;25.83;69.47
69027;BME280;56080;47.594;19.116;2023-07-13T00:17:06;100013;;;24.88;72.66
69027;BME280;56080;47.594;19.116;2023-07-13T00:27:08;99946;;;24.46;73.00
69027;BME280;56080;47.594;19.116;2023-07-13T00:37:11;99888;;;24.76;73.62
69027;BME280;56080;47.594;19.116;2023-07-13T00:47:12;99858;;;25.09;71.81
69027;BME280;56080;47.594;19.116;2023-07-13T00:57:15;99838;;;24.50;72.74
69027;BME280;56080;47.594;19.116;2023-07-13T01:07:15;99827;;;25.65;71.21
69027;BME280;56080;47.594;19.116;2023-07-13T01:17:17;99819;;;25.27;76.72
69027;BME280;56080;47.594;19.116;2023-07-13T01:37:21;99839;;;25.70;73.08
69027;BME280;56080;47.594;19.116;2023-07-13T01:47:23;99822;;;25.30;75.30
69027;BME280;56080;47.594;19.116;2023-07-13T01:57:25;99816;;;26.11;71.05
69027;BME280;56080;47.594;19.116;2023-07-13T02:07:27;99820;;;25.68;70.59
69027;BME280;56080;47.594;19.116;2023-07-13T02:17:29;99809;;;26.89;65.29
69027;BME280;56080;47.594;19.116;2023-07-13T02:27:31;99808;;;26.10;70.36
69027;BME280;56080;47.594;19.116;2023-07-13T02:37:33;99825;;;24.91;75.89
69027;BME280;56080;47.594;19.116;2023-07-13T02:47:35;99835;;;23.43;87.46
69027;BME280;56080;47.594;19.116;2023-07-13T02:57:37;99832;;;22.83;92.36
69027;BME280;56080;47.594;19.116;2023-07-13T03:07:38;99829;;;22.67;93.98
69027;BME280;56080;47.594;19.116;2023-07-13T03:17:40;99842;;;25.51;78.28
69027;BME280;56080;47.594;19.116;2023-07-13T03:27:42;99843;;;25.08;81.38
69027;BME280;56080;47.594;19.116;2023-07-13T03:37:44;99850;;;27.28;68.16
69027;BME280;56080;47.594;19.116;2023-07-13T03:47:46;99854;;;27.22;68.49
69027;BME280;56080;47.594;19.116;2023-07-13T03:57:53;99873;;;25.53;78.06
69027;BME280;56080;47.594;19.116;2023-07-13T04:07:50;99864;;;27.33;67.72
69027;BME280;56080;47.594;19.116;2023-07-13T04:17:53;99899;;;26.67;70.43
69027;BME280;56080;47.594;19.116;2023-07-13T04:27:55;99953;;;25.48;78.39
69027;BME280;56080;47.594;19.116;2023-07-13T04:37:57;99956;;;24.50;80.72
69027;BME280;56080;47.594;19.116;2023-07-13T04:47:59;99964;;;23.55;87.39
69027;BME280;56080;47.594;19.116;2023-07-13T04:58:02;99997;;;23.14;91.06
69027;BME280;56080;47.594;19.116;2023-07-13T05:08:02;100036;;;32.28;49.68
69027;BME280;56080;47.594;19.116;2023-07-13T05:18:05;100131;;;25.17;76.32
69027;BME280;56080;47.594;19.116;2023-07-13T05:28:07;100161;;;23.32;85.59
69027;BME280;56080;47.594;19.116;2023-07-13T05:38:09;100166;;;22.74;91.41
69027;BME280;56080;47.594;19.116;2023-07-13T05:48:10;100151;;;22.39;93.47
69027;BME280;56080;47.594;19.116;2023-07-13T05:58:12;100142;;;22.00;94.66
69027;BME280;56080;47.594;19.116;2023-07-13T06:08:14;100131;;;21.63;95.08
69027;BME280;56080;47.594;19.116;2023-07-13T06:18:16;100066;;;21.77;93.75
69027;BME280;56080;47.594;19.116;2023-07-13T06:28:18;99800;;;20.65;99.92
69027;BME280;56080;47.594;19.116;2023-07-13T06:38:19;99742;;;20.78;97.79
69027;BME280;56080;47.594;19.116;2023-07-13T06:48:21;99749;;;21.29;94.48
69027;BME280;56080;47.594;19.116;2023-07-13T06:58:22;99739;;;21.69;91.47
69027;BME280;56080;47.594;19.116;2023-07-13T07:08:24;99769;;;23.21;84.26
69027;BME280;56080;47.594;19.116;2023-07-13T07:18:27;99889;;;26.95;68.62
69027;BME280;56080;47.594;19.116;2023-07-13T07:28:38;99942;;;27.18;67.67
69027;BME280;56080;47.594;19.116;2023-07-13T07:38:31;99953;;;26.45;67.84
69027;BME280;56080;47.594;19.116;2023-07-13T07:48:34;99970;;;27.42;64.83
69027;BME280;56080;47.594;19.116;2023-07-13T07:58:39;99978;;;26.91;64.27
69027;BME280;56080;47.594;19.116;2023-07-13T08:08:39;99985;;;28.32;59.56
69027;BME280;56080;47.594;19.116;2023-07-13T08:18:43;99968;;;29.12;55.69
69027;BME280;56080;47.594;19.116;2023-07-13T08:28:44;99981;;;28.38;58.36
69027;BME280;56080;47.594;19.116;2023-07-13T08:38:46;99983;;;28.55;57.41
69027;BME280;56080;47.594;19.116;2023-07-13T08:48:50;99983;;;28.96;55.85
69027;BME280;56080;47.594;19.116;2023-07-13T08:58:53;99997;;;28.75;56.61
69027;BME280;56080;47.594;19.116;2023-07-13T09:08:58;99988;;;28.45;57.42
69027;BME280;56080;47.594;19.116;2023-07-13T09:18:58;99992;;;28.34;56.25
69027;BME280;56080;47.594;19.116;2023-07-13T09:28:59;100004;;;28.41;56.46
69027;BME280;56080;47.594;19.116;2023-07-13T09:39:03;100007;;;28.14;58.08
69027;BME280;56080;47.594;19.116;2023-07-13T09:49:04;100009;;;28.03;57.87
69027;BME280;56080;47.594;19.116;2023-07-13T09:59:11;100023;;;27.55;60.86
69027;BME280;56080;47.594;19.116;2023-07-13T10:09:07;100009;;;27.61;60.49
69027;BME280;56080;47.594;19.116;2023-07-13T10:19:15;100018;;;27.58;59.83
69027;BME280;56080;47.594;19.116;2023-07-13T10:29:12;100015;;;27.50;58.62
69027;BME280;56080;47.594;19.116;2023-07-13T10:39:21;100021;;;27.76;58.51
69027;BME280;56080;47.594;19.116;2023-07-13T10:49:16;100014;;;27.62;59.40
69027;BME280;56080;47.594;19.116;2023-07-13T10:59:23;100009;;;28.04;57.99
69027;BME280;56080;47.594;19.116;2023-07-13T11:19:25;100011;;;27.97;55.74
69027;BME280;56080;47.594;19.116;2023-07-13T11:49:30;100000;;;27.94;55.25
69027;BME280;56080;47.594;19.116;2023-07-13T11:59:33;100005;;;28.18;55.75
69027;BME280;56080;47.594;19.116;2023-07-13T12:09:36;100014;;;27.78;53.07
69027;BME280;56080;47.594;19.116;2023-07-13T12:19:37;99994;;;27.65;52.97
69027;BME280;56080;47.594;19.116;2023-07-13T12:39:45;99995;;;27.99;52.93
69027;BME280;56080;47.594;19.116;2023-07-13T12:49:47;99980;;;28.25;50.61
69027;BME280;56080;47.594;19.116;2023-07-13T12:59:45;99975;;;27.95;52.42
69027;BME280;56080;47.594;19.116;2023-07-13T13:09:47;99982;;;28.03;52.48
69027;BME280;56080;47.594;19.116;2023-07-13T13:19:50;99967;;;27.82;53.37
69027;BME280;56080;47.594;19.116;2023-07-13T13:29:53;99957;;;27.94;53.16
69027;BME280;56080;47.594;19.116;2023-07-13T13:40:12;99962;;;28.08;52.44
69027;BME280;56080;47.594;19.116;2023-07-13T13:49:56;99951;;;28.22;52.02
69027;BME280;56080;47.594;19.116;2023-07-13T13:59:59;99959;;;27.98;52.97
69027;BME280;56080;47.594;19.116;2023-07-13T14:10:01;99964;;;27.90;53.08
69027;BME280;56080;47.594;19.116;2023-07-13T14:20:05;99969;;;27.90;52.70
69027;BME280;56080;47.594;19.116;2023-07-13T14:30:14;99974;;;28.20;53.25
69027;BME280;56080;47.594;19.116;2023-07-13T14:40:13;99980;;;28.22;53.19
69027;BME280;56080;47.594;19.116;2023-07-13T14:50:13;99997;;;28.34;53.32
69027;BME280;56080;47.594;19.116;2023-07-13T15:00:16;100010;;;28.46;51.62
69027;BME280;56080;47.594;19.116;2023-07-13T15:10:23;100002;;;28.40;51.49
69027;BME280;56080;47.594;19.116;2023-07-13T15:20:23;100011;;;28.22;52.34
69027;BME280;56080;47.594;19.116;2023-07-13T15:30:20;100016;;;28.21;52.02
69027;BME280;56080;47.594;19.116;2023-07-13T15:40:24;100021;;;28.10;51.01
69027;BME280;56080;47.594;19.116;2023-07-13T15:50:31;100006;;;27.95;51.40
69027;BME280;56080;47.594;19.116;2023-07-13T16:00:27;99990;;;27.96;51.21
69027;BME280;56080;47.594;19.116;2023-07-13T16:10:32;99985;;;32.34;40.75
69027;BME280;56080;47.594;19.116;2023-07-13T16:20:32;100017;;;36.23;33.04
69027;BME280;56080;47.594;19.116;2023-07-13T16:30:35;100033;;;32.03;41.28
69027;BME280;56080;47.594;19.116;2023-07-13T16:40:38;100033;;;30.70;44.30
69027;BME280;56080;47.594;19.116;2023-07-13T16:50:43;100015;;;32.36;40.29
69027;BME280;56080;47.594;19.116;2023-07-13T17:00:47;100014;;;31.94;41.40
69027;BME280;56080;47.594;19.116;2023-07-13T17:10:45;100012;;;31.83;41.23
69027;BME280;56080;47.594;19.116;2023-07-13T17:20:48;100019;;;31.41;42.52
69027;BME280;56080;47.594;19.116;2023-07-13T17:30:51;100019;;;31.68;40.99
69027;BME280;56080;47.594;19.116;2023-07-13T17:50:57;100029;;;30.25;37.32
69027;BME280;56080;47.594;19.116;2023-07-13T18:01:00;100025;;;30.46;36.10
69027;BME280;56080;47.594;19.116;2023-07-13T18:11:01;100022;;;35.37;28.55
69027;BME280;56080;47.594;19.116;2023-07-13T18:21:03;100034;;;34.86;29.25
69027;BME280;56080;47.594;19.116;2023-07-13T18:31:07;100059;;;33.16;32.32
69027;BME280;56080;47.594;19.116;2023-07-13T18:41:10;100082;;;28.26;45.11
69027;BME280;56080;47.594;19.116;2023-07-13T18:51:11;100076;;;27.45;54.54
69027;BME280;56080;47.594;19.116;2023-07-13T19:11:16;100091;;;26.57;56.94
69027;BME280;56080;47.594;19.116;2023-07-13T19:41:22;100139;;;25.79;67.37
69027;BME280;56080;47.594;19.116;2023-07-13T19:51:23;100150;;;26.56;58.40
69027;BME280;56080;47.594;19.116;2023-07-13T20:01:27;100168;;;24.85;69.27
69027;BME280;56080;47.594;19.116;2023-07-13T20:11:27;100165;;;24.16;70.59
69027;BME280;56080;47.594;19.116;2023-07-13T20:21:29;100182;;;23.97;71.94
69027;BME280;56080;47.594;19.116;2023-07-13T20:31:31;100191;;;24.05;66.54
69027;BME280;56080;47.594;19.116;2023-07-13T20:41:32;100183;;;23.95;68.27
69027;BME280;56080;47.594;19.116;2023-07-13T20:51:34;100179;;;24.06;68.98
69027;BME280;56080;47.594;19.116;2023-07-13T21:01:37;100178;;;24.05;70.35
69027;BME280;56080;47.594;19.116;2023-07-13T21:11:39;100164;;;23.77;73.79
69027;BME280;56080;47.594;19.116;2023-07-13T21:21:40;100143;;;23.90;62.66
69027;BME280;56080;47.594;19.116;2023-07-13T21:31:42;100155;;;26.79;49.42
69027;BME280;56080;47.594;19.116;2023-07-13T21:41:44;100158;;;26.69;49.29
69027;BME280;56080;47.594;19.116;2023-07-13T21:51:46;100166;;;26.40;50.67
69027;BME280;56080;47.594;19.116;2023-07-13T22:01:48;100163;;;26.39;49.92
69027;BME280;56080;47.594;19.116;2023-07-13T22:11:50;100176;;;25.54;54.95
69027;BME280;56080;47.594;19.116;2023-07-13T22:21:52;100181;;;26.22;52.54
69027;BME280;56080;47.594;19.116;2023-07-13T22:31:54;100194;;;26.26;53.45
69027;BME280;56080;47.594;19.116;2023-07-13T22:41:56;100205;;;25.33;58.05
69027;BME280;56080;47.594;19.116;2023-07-13T22:51:59;100206;;;23.96;64.31
69027;BME280;56080;47.594;19.116;2023-07-13T23:02:03;100206;;;23.74;66.34
69027;BME280;56080;47.594;19.116;2023-07-13T23:12:03;100221;;;24.91;61.99
69027;BME280;56080;47.594;19.116;2023-07-13T23:22:05;100219;;;24.82;62.81
69027;BME280;56080;47.594;19.116;2023-07-13T23:32:09;100216;;;23.52;68.06
69027;BME280;56080;47.594;19.116;2023-07-13T23:42:08;100219;;;22.95;71.28
69027;BME280;56080;47.594;19.116;2023-07-13T23:52:11;100230;;;22.79;72.35
